首页
METAR-TAF:

METAR-TAF

机场 :

明尼阿波利斯-圣保罗国际机场

明尼阿波利斯, 明尼蘇達州, 美国

纬度: 44-52-59N, 经度: 093-13-44W, 海拔: 256米

当前天气观测

该预报发布于50分钟前的05:53 UTC
风速3节,风向
温度 17°C
湿度 77%
气压 1005 hPa
能見度: 16.1公里
少量云层高于25000英尺

METAR: KMSP 250553Z 17003KT 10SM FEW250 17/13 A2968 RMK AO2 SLP049 60000 T01670133 10206 20161 402280161 53002

时间: 01:43 (06:43 UTC)

预报

该预报发布于1小时和23分钟前的05:20 UTC
预报有效从25日的 06点(UTC)到 26日的 12点(UTC)
风速4节,风向多变
能見度: 10公里
散云层高于10000英尺
从 25日的 1000点(UTC)
风速6节,风向西转西南
能見度: 10公里
天空无云
从 25日的 1600点(UTC)
风速14节,风向西,有时为23节阵风
能見度: 10公里
少量云层高于5000英尺
从 26日的 0200点(UTC)
风速5节,风向西
能見度: 10公里
天空无云

TAF: KMSP 250520Z 2506/2612 VRB04KT P6SM SCT100 FM251000 25006KT P6SM SKC FM251600 26014G23KT P6SM FEW050 FM260200 26005KT P6SM SKC

超过4000个机场的气象观测和天气预报(METAR&TAF报告)。

可查询的气象台以黄色和红色小点在地图上表示。

将鼠标移到小点上方,可查看气象台名称。

然后点击查看天气观测和预报。

如需切换地图:点击带黑十字的绿色按钮放大地图;点击带横线的绿色按钮缩小地图;或者点击绿色箭头查看邻近地区的地图。


METAR-TAF: